Time;durP1;ratioP1;P1;durP2;ratioP2;P2;SDS_P1;SDS_P2;PMS_P1;PMS_P2;Temp;Humidity;BMP_temperature;BMP_pressure;BME280_temperature;BME280_humidity;BME280_pressure;Samples;Min_cycle;Max_cycle;Signal;HPM_P1;HPM_P2
2022/01/25 00:08:23;;;;;;;;;88.00;64.75;;;;;1.92;65.83;102473.22;4960128;28;45367;-62
2022/01/25 00:15:19;;;;;;;;;97.75;73.00;;;;;1.72;66.15;102473.63;4976461;28;45301;-63
2022/01/25 00:26:29;;;;;;;;;100.00;82.00;;;;;1.63;66.72;102469.47;4902786;28;45682;-61
2022/01/25 00:31:30;;;;;;;;;102.00;81.50;;;;;1.67;66.47;102472.00;4976418;28;45301;-61
2022/01/25 00:33:55;;;;;;;;;98.50;80.00;;;;;1.68;66.52;102474.59;4977545;28;46744;-61
2022/01/25 00:36:22;;;;;;;;;101.75;79.00;;;;;1.71;66.30;102478.84;4961990;28;45456;-63
2022/01/25 00:38:48;;;;;;;;;102.25;81.25;;;;;1.72;66.21;102480.53;4979647;28;45471;-64
2022/01/25 00:41:14;;;;;;;;;93.75;70.50;;;;;1.72;66.11;102470.19;4961869;28;45492;-62
2022/01/25 00:43:39;;;;;;;;;99.00;73.75;;;;;1.70;66.25;102472.81;4979156;28;47957;-61
2022/01/25 00:46:08;;;;;;;;;100.50;78.00;;;;;1.68;66.16;102469.41;4961118;28;67748;-64
2022/01/25 00:51:16;;;;;;;;;100.75;76.00;;;;;1.65;66.23;102471.19;4979174;28;45305;-64
2022/01/25 00:56:19;;;;;;;;;95.75;68.75;;;;;1.59;66.50;102470.41;4963348;28;45442;-60
2022/01/25 00:58:44;;;;;;;;;92.50;66.00;;;;;1.57;66.42;102464.44;4979150;28;45364;-62
2022/01/25 01:01:10;;;;;;;;;92.75;67.00;;;;;1.55;66.55;102461.03;4978327;28;60998;-62
2022/01/25 01:03:35;;;;;;;;;89.00;66.75;;;;;1.56;67.12;102465.31;4944790;28;63617;-61
2022/01/25 01:06:02;;;;;;;;;85.25;62.50;;;;;1.59;66.91;102469.56;4978903;28;45452;-63
2022/01/25 01:08:27;;;;;;;;;91.75;69.00;;;;;1.60;66.78;102460.91;4945309;28;45320;-62
2022/01/25 01:10:53;;;;;;;;;87.00;64.25;;;;;1.61;66.51;102466.06;4977976;28;67391;-61
2022/01/25 01:16:09;;;;;;;;;79.50;59.25;;;;;1.62;66.43;102464.34;4978705;28;45164;-61
2022/01/25 01:29:46;;;;;;;;;88.50;61.50;;;;;1.62;66.51;102470.34;4978506;28;45289;-62
2022/01/25 01:32:36;;;;;;;;;99.50;73.75;;;;;1.62;65.88;102466.94;4978414;28;45235;-63
2022/01/25 01:45:57;;;;;;;;;80.00;58.50;;;;;1.55;66.00;102466.22;4977145;28;45372;-61
2022/01/25 01:48:40;;;;;;;;;91.00;66.25;;;;;1.57;65.79;102469.63;4962268;28;45624;-63
2022/01/25 01:51:13;;;;;;;;;92.25;68.50;;;;;1.58;65.65;102481.69;4960774;28;45361;-62
2022/01/25 01:53:39;;;;;;;;;85.50;65.75;;;;;1.58;65.51;102480.81;4961478;28;45554;-63
2022/01/25 01:56:04;;;;;;;;;89.50;65.00;;;;;1.59;65.65;102475.59;4978037;28;46237;-62
2022/01/25 01:58:30;;;;;;;;;82.50;61.00;;;;;1.55;65.82;102479.16;4960671;28;45489;-62
2022/01/25 02:00:55;;;;;;;;;76.25;59.50;;;;;1.53;65.84;102473.16;4959942;28;60112;-62
2022/01/25 02:03:21;;;;;;;;;79.50;60.25;;;;;1.50;65.78;102470.63;4978064;28;45481;-61
2022/01/25 02:05:46;;;;;;;;;79.50;59.00;;;;;1.49;65.67;102471.50;4977906;28;46320;-63
2022/01/25 02:08:11;;;;;;;;;87.75;62.75;;;;;1.47;65.85;102466.34;4959796;28;60800;-63
2022/01/25 02:10:37;;;;;;;;;85.50;65.75;;;;;1.44;65.46;102475.91;4944648;28;45630;-61
2022/01/25 02:13:06;;;;;;;;;86.75;65.25;;;;;1.37;65.04;102474.31;4978042;28;45448;-63
2022/01/25 02:15:32;;;;;;;;;87.00;65.50;;;;;1.30;65.27;102486.53;4944081;28;45612;-62
2022/01/25 02:23:21;;;;;;;;;84.50;63.00;;;;;1.27;65.37;102489.19;4963145;28;45328;-62
2022/01/25 02:25:47;;;;;;;;;87.00;64.00;;;;;1.27;65.49;102490.00;4977635;28;46375;-63
2022/01/25 02:28:12;;;;;;;;;89.00;65.75;;;;;1.26;65.77;102487.47;4960056;28;45825;-62
2022/01/25 02:30:38;;;;;;;;;82.00;66.50;;;;;1.24;66.00;102479.72;4977878;28;45664;-61
2022/01/25 02:33:03;;;;;;;;;86.50;64.25;;;;;1.25;65.63;102480.56;4977745;28;45298;-63
2022/01/25 02:35:29;;;;;;;;;89.50;64.75;;;;;1.21;65.47;102479.75;4959828;28;46380;-62
2022/01/25 02:37:54;;;;;;;;;89.00;65.00;;;;;1.16;65.24;102485.03;4959522;28;59229;-61
2022/01/25 02:40:20;;;;;;;;;86.50;65.50;;;;;1.11;65.12;102481.66;4976403;28;68396;-61
2022/01/25 02:42:45;;;;;;;;;89.00;65.75;;;;;1.07;65.27;102482.59;4977395;28;45520;-63
2022/01/25 02:45:15;;;;;;;;;88.00;67.50;;;;;1.03;65.26;102487.00;4976691;28;62381;-63
2022/01/25 02:50:24;;;;;;;;;91.75;63.25;;;;;0.93;65.93;102492.31;4977567;28;45334;-61
2022/01/25 02:52:51;;;;;;;;;87.00;64.50;;;;;0.91;65.95;102489.78;4977124;28;45647;-62
2022/01/25 02:55:18;;;;;;;;;86.25;59.75;;;;;0.91;66.40;102487.19;4977107;28;46202;-63
2022/01/25 02:57:44;;;;;;;;;86.75;63.00;;;;;0.87;66.65;102481.19;4976902;28;45455;-62
2022/01/25 03:00:10;;;;;;;;;89.50;63.75;;;;;0.85;66.89;102482.09;4977458;28;45388;-62
2022/01/25 03:02:35;;;;;;;;;86.25;63.00;;;;;0.83;66.68;102483.88;4959866;28;45426;-61
2022/01/25 03:05:01;;;;;;;;;84.00;61.25;;;;;0.82;67.22;102483.00;4977084;28;46253;-63
2022/01/25 03:07:26;;;;;;;;;87.00;63.25;;;;;0.80;67.45;102478.72;4976278;28;65125;-63
2022/01/25 03:09:55;;;;;;;;;75.50;59.50;;;;;0.77;67.90;102482.25;4976452;28;63671;-63
2022/01/25 03:12:32;;;;;;;;;75.50;55.75;;;;;0.74;68.52;102485.72;4959971;28;45419;-64
2022/01/25 03:15:12;;;;;;;;;76.75;56.25;;;;;0.72;68.94;102487.47;4959395;28;46151;-62
2022/01/25 03:17:45;;;;;;;;;74.00;53.75;;;;;0.73;69.37;102496.94;4961871;28;45792;-63
2022/01/25 03:20:18;;;;;;;;;74.00;53.50;;;;;0.74;69.87;102490.88;4977047;28;45441;-62
2022/01/25 03:25:09;;;;;;;;;76.75;56.00;;;;;0.82;70.46;102487.31;4976790;28;46098;-62
2022/01/25 03:27:34;;;;;;;;;80.50;55.25;;;;;0.87;70.09;102480.34;4976004;28;67136;-62
2022/01/25 03:30:00;;;;;;;;;72.00;55.50;;;;;0.88;70.16;102480.31;4976187;28;59640;-60
2022/01/25 03:32:25;;;;;;;;;70.50;53.75;;;;;0.90;70.33;102477.72;4976230;28;63944;-62
2022/01/25 03:34:51;;;;;;;;;72.75;53.25;;;;;0.91;70.15;102466.47;4975837;28;67470;-62
2022/01/25 03:37:16;;;;;;;;;74.75;56.00;;;;;0.90;70.43;102459.59;4975932;28;65406;-63
2022/01/25 03:39:41;;;;;;;;;66.00;52.75;;;;;0.90;70.54;102464.78;4958281;28;68213;-62
2022/01/25 03:42:09;;;;;;;;;82.50;58.25;;;;;0.94;70.84;102469.00;4976053;28;63859;-61
2022/01/25 03:44:35;;;;;;;;;72.25;53.00;;;;;0.93;70.63;102459.53;4959531;28;46432;-61
2022/01/25 03:47:06;;;;;;;;;72.75;54.00;;;;;0.94;70.81;102458.66;4976525;28;45405;-63
2022/01/25 03:49:50;;;;;;;;;78.50;54.75;;;;;0.96;71.01;102464.66;4959203;28;45361;-62
2022/01/25 03:52:24;;;;;;;;;69.25;53.00;;;;;1.03;70.96;102462.81;4976610;28;45438;-64
2022/01/25 03:54:50;;;;;;;;;69.50;47.50;;;;;1.05;71.03;102468.81;4943251;28;45448;-62
2022/01/25 03:57:16;;;;;;;;;74.75;51.00;;;;;1.08;71.05;102466.19;4976618;28;45280;-62
2022/01/25 03:59:42;;;;;;;;;71.75;51.50;;;;;1.09;70.94;102469.63;4976664;28;45441;-62
2022/01/25 04:02:07;;;;;;;;;71.75;52.00;;;;;1.10;71.08;102473.91;4942728;28;45464;-62
2022/01/25 04:04:34;;;;;;;;;68.00;50.25;;;;;1.10;71.16;102474.78;4958832;28;46038;-61
2022/01/25 04:07:07;;;;;;;;;67.00;49.25;;;;;1.14;71.25;102478.16;4959054;28;45441;-61
2022/01/25 04:09:33;;;;;;;;;70.50;49.75;;;;;1.17;71.31;102483.28;4978887;28;45350;-62
2022/01/25 04:11:58;;;;;;;;;63.25;48.00;;;;;1.21;71.29;102472.00;4979888;28;45352;-62
2022/01/25 04:14:24;;;;;;;;;61.25;48.25;;;;;1.24;71.29;102471.94;4979541;28;45432;-62
2022/01/25 04:17:03;;;;;;;;;60.00;48.50;;;;;1.27;71.23;102469.28;4979541;28;46038;-61
2022/01/25 04:19:36;;;;;;;;;52.00;43.25;;;;;1.29;70.92;102472.72;4962370;28;45377;-61
2022/01/25 04:27:23;;;;;;;;;55.00;40.00;;;;;1.37;71.25;102471.72;4979501;28;45661;-61
2022/01/25 04:29:49;;;;;;;;;60.25;41.00;;;;;1.38;71.52;102465.66;4978994;28;61477;-62
2022/01/25 04:32:15;;;;;;;;;54.25;40.25;;;;;1.39;71.53;102467.38;4979676;28;45504;-61
2022/01/25 04:34:45;;;;;;;;;58.50;43.00;;;;;1.37;71.29;102463.94;4961956;28;45572;-61
2022/01/25 04:58:30;;;;;;;;;50.75;38.75;;;;;1.20;72.45;102483.22;4979041;28;45362;-62
2022/01/25 05:00:55;;;;;;;;;46.75;37.00;;;;;1.21;72.56;102484.94;4947994;28;45465;-63
2022/01/25 05:03:26;;;;;;;;;56.50;39.00;;;;;1.20;72.32;102483.22;4978545;28;57927;-62
2022/01/25 05:05:57;;;;;;;;;59.75;37.50;;;;;1.21;72.53;102482.34;4979013;28;47045;-62
2022/01/25 05:11:29;;;;;;;;;49.25;40.75;;;;;1.24;72.27;102478.88;4965965;28;45491;-60
2022/01/25 05:16:46;;;;;;;;;53.75;41.50;;;;;1.24;72.19;102479.72;4978826;28;45423;-60
2022/01/25 05:24:27;;;;;;;;;52.25;39.25;;;;;1.28;71.70;102478.78;4978659;28;45319;-62
2022/01/25 05:26:53;;;;;;;;;51.25;39.25;;;;;1.30;71.95;102484.78;4977760;28;68804;-61
2022/01/25 05:29:18;;;;;;;;;44.75;36.50;;;;;1.35;71.80;102483.84;4960555;28;61915;-62
2022/01/25 05:31:44;;;;;;;;;51.75;38.00;;;;;1.38;71.94;102491.56;4978595;28;45358;-60
2022/01/25 05:34:09;;;;;;;;;48.50;38.00;;;;;1.41;71.90;102486.31;4978658;28;45327;-61
2022/01/25 05:36:36;;;;;;;;;44.50;39.75;;;;;1.41;72.00;102481.16;4978262;28;46062;-62
2022/01/25 05:39:11;;;;;;;;;57.75;39.00;;;;;1.45;71.79;102491.41;4961028;28;45284;-62
2022/01/25 05:41:36;;;;;;;;;53.25;38.75;;;;;1.48;71.83;102501.72;4961666;28;45386;-61
2022/01/25 05:44:22;;;;;;;;;56.25;41.25;;;;;1.51;71.66;102502.53;4960764;28;45516;-62
2022/01/25 05:47:05;;;;;;;;;51.75;38.75;;;;;1.51;71.57;102503.41;4960595;28;46871;-61
2022/01/25 05:49:32;;;;;;;;;52.50;40.50;;;;;1.52;71.84;102493.88;4978324;28;45322;-61
2022/01/25 05:51:58;;;;;;;;;61.25;42.50;;;;;1.54;71.64;102493.00;4978185;28;45340;-62
2022/01/25 05:54:23;;;;;;;;;51.50;39.75;;;;;1.57;71.87;102492.06;4960097;28;61402;-62
2022/01/25 05:56:49;;;;;;;;;54.25;39.00;;;;;1.58;71.70;102486.00;4977372;28;67243;-61
2022/01/25 05:59:14;;;;;;;;;55.25;38.75;;;;;1.60;71.66;102487.66;4959607;28;65744;-62
2022/01/25 06:01:39;;;;;;;;;60.00;44.50;;;;;1.62;71.83;102487.66;4977269;28;66171;-61
2022/01/25 06:04:06;;;;;;;;;50.00;39.50;;;;;1.62;71.87;102485.91;4977945;28;45208;-60
2022/01/25 06:06:32;;;;;;;;;57.25;41.25;;;;;1.63;72.06;102477.25;4977735;28;45405;-61
2022/01/25 06:08:59;;;;;;;;;56.25;42.25;;;;;1.65;71.90;102473.78;4977741;28;45270;-63
2022/01/25 06:11:25;;;;;;;;;68.00;44.25;;;;;1.66;71.93;102480.66;4978001;28;45437;-60
2022/01/25 06:13:51;;;;;;;;;52.75;40.75;;;;;1.65;71.90;102482.41;4977759;28;45402;-62
2022/01/25 06:16:17;;;;;;;;;62.25;42.25;;;;;1.65;71.89;102478.94;4960251;28;45454;-61
2022/01/25 06:18:42;;;;;;;;;61.50;42.25;;;;;1.66;72.21;102480.66;4959411;28;68715;-62
2022/01/25 06:21:08;;;;;;;;;59.50;43.50;;;;;1.67;72.10;102483.25;4977968;28;45441;-62
2022/01/25 06:23:33;;;;;;;;;45.00;30.50;;;;;1.70;72.42;102487.50;4977048;28;61867;-61
2022/01/25 06:25:58;;;;;;;;;59.00;41.75;;;;;1.73;72.26;102483.13;4959381;28;66257;-60
2022/01/25 06:28:24;;;;;;;;;58.00;40.75;;;;;1.75;72.25;102485.66;4976827;28;66725;-61
2022/01/25 06:30:49;;;;;;;;;57.50;44.50;;;;;1.75;72.01;102483.94;4976193;28;63071;-61
2022/01/25 06:33:15;;;;;;;;;65.25;48.25;;;;;1.77;72.09;102489.09;4977394;28;45224;-63
2022/01/25 06:35:40;;;;;;;;;66.75;47.75;;;;;1.76;72.05;102487.38;4959768;28;45440;-62
2022/01/25 06:38:05;;;;;;;;;69.50;49.75;;;;;1.76;72.20;102487.38;4960153;28;45340;-62
2022/01/25 06:40:31;;;;;;;;;69.25;47.50;;;;;1.77;72.22;102489.09;4943965;28;45419;-61
2022/01/25 06:42:56;;;;;;;;;63.75;45.50;;;;;1.78;72.48;102486.47;4959880;28;45323;-60
2022/01/25 06:45:24;;;;;;;;;59.00;44.75;;;;;1.79;72.47;102487.31;4976139;28;67865;-63
2022/01/25 06:47:49;;;;;;;;;56.50;42.75;;;;;1.78;72.24;102486.47;4959696;28;45311;-62
2022/01/25 06:50:16;;;;;;;;;58.25;41.75;;;;;1.78;72.27;102480.44;4959539;28;45343;-61
2022/01/25 06:52:42;;;;;;;;;57.25;44.75;;;;;1.79;72.60;102487.31;4958887;28;45408;-62
2022/01/25 06:55:09;;;;;;;;;68.75;46.00;;;;;1.78;72.68;102483.03;4976953;28;46354;-61
2022/01/25 06:57:35;;;;;;;;;63.00;45.00;;;;;1.80;72.68;102476.06;4976971;28;45760;-62
2022/01/25 07:00:00;;;;;;;;;59.75;43.50;;;;;1.81;72.46;102480.38;4959659;28;45379;-62
2022/01/25 07:02:25;;;;;;;;;62.00;49.50;;;;;1.81;72.07;102485.56;4959551;28;45548;-61
2022/01/25 07:04:51;;;;;;;;;57.50;43.00;;;;;1.75;72.65;102480.47;4959358;28;45393;-61
2022/01/25 07:07:16;;;;;;;;;61.00;43.75;;;;;1.70;72.08;102484.91;4943342;28;45465;-61
2022/01/25 07:09:42;;;;;;;;;63.25;46.25;;;;;1.66;72.30;102491.03;4976530;28;53651;-61
2022/01/25 07:12:08;;;;;;;;;56.50;44.25;;;;;1.60;72.57;102498.03;4976357;28;58915;-61
2022/01/25 07:14:33;;;;;;;;;59.00;43.00;;;;;1.55;72.21;102493.84;4942951;28;46893;-61
2022/01/25 07:16:59;;;;;;;;;62.00;44.25;;;;;1.52;73.16;102497.34;4976537;28;45417;-61
2022/01/25 07:19:25;;;;;;;;;61.25;45.75;;;;;1.52;73.39;102501.66;4976807;28;45445;-62
2022/01/25 07:21:51;;;;;;;;;63.25;45.25;;;;;1.52;73.52;102493.88;4976237;28;45692;-61
2022/01/25 07:24:17;;;;;;;;;61.75;47.25;;;;;1.54;73.48;102502.50;4976296;28;46189;-62
2022/01/25 07:26:43;;;;;;;;;60.00;45.25;;;;;1.54;73.40;102499.91;4976365;28;45684;-61
2022/01/25 07:29:08;;;;;;;;;63.75;46.00;;;;;1.51;73.43;102498.22;4976403;28;45602;-61
2022/01/25 07:31:34;;;;;;;;;67.75;47.00;;;;;1.51;73.30;102500.81;4976180;28;45317;-61
2022/01/25 07:33:59;;;;;;;;;67.50;47.50;;;;;1.52;73.65;102501.66;4976413;28;46493;-60
2022/01/25 07:36:25;;;;;;;;;61.50;45.75;;;;;1.52;73.90;102507.72;4958321;28;61221;-63
2022/01/25 07:38:51;;;;;;;;;61.25;48.50;;;;;1.53;73.93;102506.84;4975827;28;65280;-62
2022/01/25 07:41:16;;;;;;;;;63.50;48.00;;;;;1.55;73.62;102510.25;4976690;28;45319;-62
2022/01/25 07:43:41;;;;;;;;;62.75;43.75;;;;;1.55;73.65;102515.44;4978965;28;45959;-61
2022/01/25 07:46:07;;;;;;;;;60.75;49.00;;;;;1.55;73.90;102522.34;4962497;28;45381;-60
2022/01/25 07:48:32;;;;;;;;;67.25;48.25;;;;;1.57;73.88;102531.81;4962291;28;45300;-62
2022/01/25 07:50:58;;;;;;;;;64.25;49.00;;;;;1.59;74.02;102536.94;4979960;28;45456;-62
2022/01/25 07:53:23;;;;;;;;;66.50;49.50;;;;;1.62;73.87;102531.72;4962260;28;45286;-60
2022/01/25 07:55:49;;;;;;;;;71.25;45.50;;;;;1.62;73.60;102521.34;4978984;28;67105;-63
2022/01/25 07:58:14;;;;;;;;;62.00;46.25;;;;;1.62;73.67;102529.97;4979970;28;45354;-61
2022/01/25 08:00:39;;;;;;;;;65.50;47.25;;;;;1.62;73.86;102523.94;4962437;28;45271;-61
2022/01/25 08:03:05;;;;;;;;;57.75;43.00;;;;;1.64;74.09;102535.13;4978873;28;68418;-61
2022/01/25 08:05:30;;;;;;;;;67.50;43.75;;;;;1.66;74.00;102537.66;4961976;28;51759;-62
2022/01/25 08:07:55;;;;;;;;;64.75;47.50;;;;;1.70;73.56;102541.91;4961521;28;66057;-63
2022/01/25 08:10:21;;;;;;;;;50.50;43.00;;;;;1.70;73.78;102537.59;4979874;28;45307;-62
2022/01/25 08:12:47;;;;;;;;;54.75;42.75;;;;;1.70;73.71;102539.31;4979667;28;45378;-63
2022/01/25 08:15:12;;;;;;;;;59.50;44.50;;;;;1.72;73.63;102538.44;4979653;28;45717;-63
2022/01/25 08:17:38;;;;;;;;;57.00;43.50;;;;;1.72;73.64;102532.38;4979583;28;45322;-63
2022/01/25 08:20:04;;;;;;;;;48.25;42.00;;;;;1.73;73.86;102536.69;4978872;28;65889;-62
2022/01/25 08:22:29;;;;;;;;;52.00;39.75;;;;;1.76;73.44;102531.44;4979628;28;45464;-64
2022/01/25 08:24:55;;;;;;;;;60.25;41.50;;;;;1.77;73.30;102539.19;4979577;28;45451;-63
2022/01/25 08:27:22;;;;;;;;;58.25;44.50;;;;;1.79;73.52;102539.16;4945315;28;62011;-62
2022/01/25 08:29:48;;;;;;;;;60.25;44.00;;;;;1.79;73.34;102539.16;4979494;28;45516;-62
2022/01/25 08:32:13;;;;;;;;;59.75;44.50;;;;;1.83;73.50;102543.41;4961935;28;45343;-63
2022/01/25 08:34:39;;;;;;;;;64.00;48.75;;;;;1.85;73.47;102549.41;4961836;28;45394;-59
2022/01/25 08:37:05;;;;;;;;;56.75;42.25;;;;;1.87;73.39;102544.19;4990877;28;64232;-63
2022/01/25 08:39:41;;;;;;;;;64.75;45.00;;;;;1.87;73.38;102546.78;4998978;28;45512;-62
2022/01/25 08:42:08;;;;;;;;;55.75;45.25;;;;;1.90;73.26;102549.31;4980457;28;45496;-62
2022/01/25 08:44:33;;;;;;;;;60.00;43.75;;;;;1.92;73.27;102542.34;4999153;28;45708;-62
2022/01/25 08:46:58;;;;;;;;;64.50;45.00;;;;;1.95;73.48;102541.47;4997534;28;64225;-61
2022/01/25 08:49:24;;;;;;;;;61.50;45.00;;;;;1.95;72.93;102542.31;4980078;28;65886;-62
2022/01/25 08:51:49;;;;;;;;;61.25;44.25;;;;;1.97;72.88;102553.50;4998417;28;48112;-61
2022/01/25 08:54:16;;;;;;;;;60.25;45.75;;;;;1.98;72.87;102549.19;4979301;28;73412;-62
2022/01/25 08:56:44;;;;;;;;;55.25;40.50;;;;;1.97;73.32;102537.94;4998826;28;45480;-61
2022/01/25 08:59:10;;;;;;;;;56.25;41.75;;;;;1.98;72.95;102534.47;4998915;28;45503;-61
2022/01/25 09:01:36;;;;;;;;;57.00;43.00;;;;;1.97;73.13;102531.91;4998574;28;46595;-61
2022/01/25 09:04:01;;;;;;;;;59.75;44.00;;;;;2.01;72.96;102538.75;4979916;28;69607;-61
2022/01/25 09:06:27;;;;;;;;;62.00;45.50;;;;;2.01;72.86;102541.34;4998733;28;45489;-63
2022/01/25 09:08:53;;;;;;;;;56.25;44.50;;;;;2.00;73.06;102552.59;4998700;28;45170;-63
2022/01/25 09:11:18;;;;;;;;;61.75;46.75;;;;;2.01;72.91;102549.97;4964709;28;46211;-62
2022/01/25 09:13:49;;;;;;;;;67.00;47.75;;;;;1.99;72.66;102546.53;4980695;28;45692;-62
2022/01/25 09:16:14;;;;;;;;;64.75;45.00;;;;;1.98;72.68;102552.63;4979598;28;45488;-62
2022/01/25 09:18:40;;;;;;;;;64.75;48.75;;;;;1.95;73.26;102555.25;4997515;28;63642;-63
2022/01/25 09:21:05;;;;;;;;;64.50;45.00;;;;;1.94;72.89;102561.34;4998511;28;45334;-62
2022/01/25 09:23:31;;;;;;;;;60.75;45.50;;;;;1.93;73.00;102557.91;4997513;28;66579;-62
2022/01/25 09:25:57;;;;;;;;;65.75;45.50;;;;;1.91;72.94;102557.06;4958268;28;45368;-63
2022/01/25 09:28:22;;;;;;;;;63.75;43.50;;;;;1.90;73.11;102560.56;4979601;28;50791;-61
2022/01/25 09:30:47;;;;;;;;;65.50;47.00;;;;;1.88;73.42;102564.91;4997895;28;46284;-62
2022/01/25 09:33:13;;;;;;;;;62.75;42.75;;;;;1.86;73.76;102553.72;4997125;28;51560;-62
2022/01/25 09:35:38;;;;;;;;;59.25;46.50;;;;;1.88;73.57;102559.72;4996614;28;67139;-62
2022/01/25 09:38:04;;;;;;;;;63.00;43.75;;;;;1.90;73.53;102563.13;4996844;28;59229;-61
2022/01/25 09:40:29;;;;;;;;;64.25;46.00;;;;;1.91;73.54;102562.25;4997830;28;45227;-61
2022/01/25 09:42:57;;;;;;;;;58.75;44.75;;;;;1.93;73.43;102557.91;4970075;28;45460;-61
2022/01/25 09:45:22;;;;;;;;;62.25;47.25;;;;;1.93;73.44;102564.81;4961290;28;45360;-61
2022/01/25 09:47:48;;;;;;;;;65.25;48.00;;;;;1.97;73.40;102563.03;4978027;28;45505;-61
2022/01/25 09:50:14;;;;;;;;;56.50;42.75;;;;;1.93;73.56;102565.69;4977950;28;46094;-62
2022/01/25 09:52:43;;;;;;;;;61.00;40.75;;;;;1.93;73.81;102560.50;4960623;28;45299;-62
2022/01/25 09:55:10;;;;;;;;;68.00;47.00;;;;;1.96;73.64;102561.31;4978423;28;45374;-61
2022/01/25 09:57:36;;;;;;;;;71.75;48.75;;;;;1.99;74.00;102566.44;4944228;28;45245;-62
2022/01/25 10:00:03;;;;;;;;;63.50;47.50;;;;;2.02;73.86;102561.19;4977759;28;46273;-63
2022/01/25 10:03:01;;;;;;;;;62.00;45.25;;;;;2.05;73.88;102568.91;4960302;28;45781;-62
2022/01/25 10:05:31;;;;;;;;;60.00;47.00;;;;;2.08;73.54;102561.09;4977563;28;45301;-62
2022/01/25 10:08:01;;;;;;;;;61.00;44.50;;;;;2.08;73.15;102564.50;4944735;28;45427;-62
2022/01/25 10:10:27;;;;;;;;;60.50;43.75;;;;;2.10;73.17;102566.22;4960443;28;45397;-62
2022/01/25 10:12:54;;;;;;;;;64.25;44.75;;;;;2.10;73.40;102574.88;4977785;28;45674;-61
2022/01/25 10:15:20;;;;;;;;;62.25;45.75;;;;;2.12;73.71;102577.41;4977990;28;45534;-61
2022/01/25 10:17:45;;;;;;;;;63.50;43.50;;;;;2.15;73.80;102583.38;4977073;28;60195;-61
2022/01/25 10:20:31;;;;;;;;;62.75;42.75;;;;;2.20;73.54;102570.34;4977304;28;45473;-62
2022/01/25 10:22:59;;;;;;;;;66.25;48.75;;;;;2.23;73.69;102576.31;4977366;28;45377;-62
2022/01/25 10:25:29;;;;;;;;;69.75;45.50;;;;;2.27;73.75;102571.06;4960033;28;45381;-62
2022/01/25 10:28:02;;;;;;;;;64.00;45.25;;;;;2.33;73.64;102578.72;4976785;28;45304;-62
2022/01/25 10:30:34;;;;;;;;;62.50;47.00;;;;;2.39;73.52;102581.19;4976265;28;45500;-62
2022/01/25 10:33:00;;;;;;;;;65.25;47.75;;;;;2.44;73.39;102584.53;4959828;28;45714;-61
2022/01/25 10:35:25;;;;;;;;;60.25;44.75;;;;;2.47;73.63;102587.06;4977477;28;45347;-63
2022/01/25 10:37:51;;;;;;;;;70.25;50.75;;;;;2.52;73.45;102587.84;4959073;28;63460;-62
2022/01/25 10:40:31;;;;;;;;;61.50;47.00;;;;;2.57;73.22;102592.91;4975884;28;68484;-62
2022/01/25 10:42:58;;;;;;;;;68.00;48.75;;;;;2.63;72.96;102584.16;4928789;28;45729;-62
2022/01/25 10:45:24;;;;;;;;;63.00;47.00;;;;;2.68;72.71;102582.28;4942635;28;64976;-62
2022/01/25 10:47:50;;;;;;;;;66.75;51.00;;;;;2.70;72.81;102585.69;4976832;28;45409;-63
2022/01/25 10:50:18;;;;;;;;;63.25;49.25;;;;;2.72;72.63;102583.94;4976236;28;46100;-62
2022/01/25 10:52:43;;;;;;;;;65.00;49.00;;;;;2.75;72.42;102591.66;4976205;28;45357;-63
2022/01/25 10:55:09;;;;;;;;;65.50;47.25;;;;;2.76;72.49;102588.16;4976964;28;45310;-61
2022/01/25 10:57:35;;;;;;;;;71.00;50.50;;;;;2.79;72.29;102584.66;4959631;28;45263;-62
2022/01/25 11:00:06;;;;;;;;;68.25;46.50;;;;;2.80;72.59;102576.81;4976047;28;62946;-63
2022/01/25 11:02:31;;;;;;;;;68.00;45.25;;;;;2.84;72.16;102574.16;4976783;28;45760;-61
2022/01/25 11:05:08;;;;;;;;;69.00;48.00;;;;;2.84;72.17;102576.75;4976318;28;61661;-62
2022/01/25 11:07:37;;;;;;;;;64.75;47.25;;;;;2.85;72.30;102584.53;4943499;28;45409;-61
2022/01/25 11:10:03;;;;;;;;;64.75;46.00;;;;;2.86;72.09;102581.03;4959309;28;46405;-61
2022/01/25 11:12:36;;;;;;;;;70.25;49.25;;;;;2.87;72.01;102587.06;4976912;28;45290;-63
2022/01/25 11:15:01;;;;;;;;;66.50;49.50;;;;;2.88;72.45;102586.19;4976868;28;45386;-62
2022/01/25 11:17:27;;;;;;;;;65.75;48.75;;;;;2.89;72.33;102580.09;4943069;28;45431;-62
2022/01/25 11:19:53;;;;;;;;;63.75;47.50;;;;;2.93;72.22;102589.53;4976667;28;46230;-63
2022/01/25 11:22:21;;;;;;;;;68.75;46.50;;;;;2.95;72.24;102588.59;4958590;28;45438;-62
2022/01/25 11:24:55;;;;;;;;;64.75;46.75;;;;;2.99;72.16;102588.53;4959729;28;45344;-63
2022/01/25 11:27:22;;;;;;;;;67.50;51.50;;;;;3.02;72.05;102583.25;4959398;28;45375;-62
2022/01/25 11:29:49;;;;;;;;;57.25;46.50;;;;;3.04;71.87;102582.34;4976305;28;45401;-62
2022/01/25 11:32:15;;;;;;;;;70.50;51.25;;;;;3.07;72.00;102577.09;4959267;28;45761;-62
2022/01/25 11:34:41;;;;;;;;;69.50;51.50;;;;;3.10;72.22;102576.16;4959072;28;45280;-62
2022/01/25 11:37:07;;;;;;;;;77.00;51.25;;;;;3.15;71.91;102576.06;4942656;28;45708;-62
2022/01/25 11:39:33;;;;;;;;;66.50;49.00;;;;;3.17;71.83;102572.50;4976318;28;45554;-62
2022/01/25 11:42:10;;;;;;;;;72.25;52.25;;;;;3.20;71.84;102572.44;4958955;28;45366;-62
2022/01/25 11:44:46;;;;;;;;;66.00;48.75;;;;;3.22;71.99;102568.06;4959028;28;45425;-63
2022/01/25 11:47:13;;;;;;;;;64.25;45.00;;;;;3.25;71.62;102574.91;4959068;28;45402;-62
2022/01/25 11:50:01;;;;;;;;;77.25;52.00;;;;;3.26;71.30;102574.88;4975910;28;45397;-61
2022/01/25 11:52:27;;;;;;;;;72.75;54.25;;;;;3.27;71.68;102567.94;4959895;28;45219;-63
2022/01/25 11:55:22;;;;;;;;;75.50;50.00;;;;;3.30;71.61;102572.22;4976409;28;45368;-61
2022/01/25 11:57:51;;;;;;;;;65.00;49.75;;;;;3.30;71.42;102570.47;4971174;28;45547;-61
2022/01/25 12:00:20;;;;;;;;;68.50;49.00;;;;;3.27;71.33;102565.34;4958776;28;45394;-62
2022/01/25 12:02:49;;;;;;;;;73.50;54.75;;;;;3.26;71.53;102559.31;4958221;28;45323;-62
2022/01/25 12:05:18;;;;;;;;;70.00;50.25;;;;;3.31;71.53;102566.13;4958977;28;45327;-61
2022/01/25 12:08:06;;;;;;;;;74.75;53.00;;;;;3.32;71.60;102563.47;4958004;28;45500;-62
2022/01/25 12:10:37;;;;;;;;;80.25;56.00;;;;;3.33;71.65;102562.59;4974558;28;45393;-62
2022/01/25 12:13:26;;;;;;;;;72.50;50.50;;;;;3.34;71.49;102566.88;4958509;28;45275;-61
2022/01/25 12:16:23;;;;;;;;;75.50;51.75;;;;;3.37;71.46;102560.78;4975998;28;45175;-61
2022/01/25 12:18:55;;;;;;;;;76.50;56.00;;;;;3.38;71.56;102560.72;4957892;28;45497;-62
2022/01/25 12:21:51;;;;;;;;;81.25;59.75;;;;;3.41;71.24;102558.06;4975751;28;45522;-62
2022/01/25 12:24:42;;;;;;;;;78.00;56.25;;;;;3.40;71.34;102553.75;4973999;28;45751;-62
2022/01/25 12:30:02;;;;;;;;;81.75;58.25;;;;;3.41;71.14;102542.47;4976682;28;45588;-61
2022/01/25 12:32:50;;;;;;;;;72.75;52.00;;;;;3.44;71.11;102540.69;4979127;28;45366;-61
2022/01/25 12:35:17;;;;;;;;;79.00;56.25;;;;;3.43;71.53;102529.44;4931179;28;45599;-63
2022/01/25 12:37:42;;;;;;;;;78.75;55.00;;;;;3.45;71.45;102531.97;4978751;28;45500;-62
2022/01/25 12:40:25;;;;;;;;;69.00;54.00;;;;;3.46;71.40;102526.72;4978893;28;45582;-60
2022/01/25 12:42:52;;;;;;;;;73.00;50.50;;;;;3.47;71.05;102530.19;4978658;28;46586;-62
2022/01/25 12:45:18;;;;;;;;;73.50;53.00;;;;;3.47;71.14;102519.81;4978822;28;45343;-61
2022/01/25 12:47:56;;;;;;;;;77.50;54.25;;;;;3.50;70.98;102522.31;4961538;28;45369;-62
2022/01/25 12:50:22;;;;;;;;;77.00;57.25;;;;;3.53;71.32;102530.88;4961403;28;45353;-61
2022/01/25 12:52:47;;;;;;;;;82.25;59.00;;;;;3.58;71.07;102522.97;4960633;28;48408;-62
2022/01/25 12:55:13;;;;;;;;;76.00;53.50;;;;;3.59;70.87;102524.69;4959905;28;68820;-61
2022/01/25 12:57:45;;;;;;;;;74.25;56.00;;;;;3.60;70.95;102529.00;4978789;28;45386;-62
2022/01/25 13:00:12;;;;;;;;;76.00;53.00;;;;;3.61;71.18;102528.09;4978627;28;45485;-61
2022/01/25 13:02:37;;;;;;;;;82.50;56.25;;;;;3.63;70.98;102520.25;4960998;28;47519;-61
2022/01/25 13:05:14;;;;;;;;;88.50;61.00;;;;;3.64;71.06;102517.63;4978200;28;45311;-61